createdAt,value
2022-11-21T00:00:51.886Z,96
2022-11-21T00:04:17.124Z,96
2022-11-21T00:07:42.450Z,96
2022-11-21T00:11:07.642Z,96
2022-11-21T00:14:32.848Z,97
2022-11-21T00:17:58.091Z,97
2022-11-21T00:21:23.328Z,96
2022-11-21T00:24:51.719Z,96
2022-11-21T00:28:13.810Z,96
2022-11-21T00:31:39.100Z,96
2022-11-21T00:35:04.322Z,96
2022-11-21T00:38:29.558Z,95
2022-11-21T00:41:54.779Z,95
2022-11-21T00:45:24.241Z,96
2022-11-21T00:48:45.228Z,96
2022-11-21T00:52:10.490Z,96
2022-11-21T00:55:35.782Z,96
2022-11-21T00:59:01.009Z,96
2022-11-21T01:02:26.271Z,97
2022-11-21T01:05:51.534Z,97
2022-11-21T01:09:16.769Z,98
2022-11-21T01:12:42.022Z,98
2022-11-21T01:16:07.255Z,98
2022-11-21T01:19:32.454Z,98
2022-11-21T01:22:57.687Z,98
2022-11-21T01:26:22.947Z,98
2022-11-21T01:29:48.181Z,98
2022-11-21T01:33:13.369Z,97
2022-11-21T01:36:38.584Z,97
2022-11-21T01:40:03.803Z,96
2022-11-21T01:43:29.033Z,95
2022-11-21T01:46:54.280Z,95
2022-11-21T01:50:19.480Z,95
2022-11-21T01:53:44.748Z,95
2022-11-21T01:57:10.029Z,95
2022-11-21T02:00:35.259Z,95
2022-11-21T02:04:00.495Z,95
2022-11-21T02:07:25.746Z,95
2022-11-21T02:10:50.946Z,95
2022-11-21T02:14:16.183Z,95
2022-11-21T02:17:41.405Z,95
2022-11-21T02:21:06.659Z,95
2022-11-21T02:24:31.875Z,95
2022-11-21T02:27:57.090Z,96
2022-11-21T02:31:22.316Z,96
2022-11-21T02:34:47.521Z,96
2022-11-21T02:38:12.764Z,96
2022-11-21T02:41:37.996Z,95
2022-11-21T02:45:03.223Z,95
2022-11-21T02:48:28.450Z,95
2022-11-21T02:51:53.678Z,95
2022-11-21T02:55:18.932Z,95
2022-11-21T02:58:44.111Z,95
2022-11-21T03:02:09.335Z,95
2022-11-21T03:05:34.579Z,95
2022-11-21T03:08:59.793Z,96
2022-11-21T03:12:25.058Z,96
2022-11-21T03:15:50.228Z,96
2022-11-21T03:19:15.435Z,96
2022-11-21T03:22:40.699Z,96
2022-11-21T03:26:05.905Z,96
2022-11-21T03:29:31.159Z,96
2022-11-21T03:32:56.355Z,96
2022-11-21T03:36:21.557Z,96
2022-11-21T03:39:46.764Z,96
2022-11-21T03:43:11.999Z,96
2022-11-21T03:46:37.226Z,96
2022-11-21T03:50:02.429Z,96
2022-11-21T03:53:27.648Z,95
2022-11-21T03:56:52.875Z,95
2022-11-21T04:00:18.083Z,95
2022-11-21T04:03:43.348Z,95
2022-11-21T04:07:08.661Z,95
2022-11-21T04:10:33.813Z,95
2022-11-21T04:13:59.023Z,95
2022-11-21T04:17:24.264Z,95
2022-11-21T04:20:49.496Z,96
2022-11-21T04:24:14.664Z,96
2022-11-21T04:27:39.875Z,96
2022-11-21T04:31:08.804Z,96
2022-11-21T04:34:30.570Z,96
2022-11-21T04:37:55.590Z,96
2022-11-21T04:41:20.793Z,96
2022-11-21T04:44:46.005Z,96
2022-11-21T04:48:11.208Z,96
2022-11-21T04:51:36.442Z,96
2022-11-21T04:55:01.665Z,96
2022-11-21T04:58:26.870Z,96
2022-11-21T05:01:52.153Z,96
2022-11-21T05:05:17.426Z,96
2022-11-21T05:08:42.656Z,95
2022-11-21T05:12:07.907Z,96
2022-11-21T05:15:33.133Z,96
2022-11-21T05:18:58.356Z,96
2022-11-21T05:22:23.598Z,95
2022-11-21T05:25:48.817Z,95
2022-11-21T05:29:14.081Z,96
2022-11-21T05:32:39.303Z,96
2022-11-21T05:36:04.562Z,95
2022-11-21T05:39:29.783Z,96
2022-11-21T05:42:55.024Z,95
2022-11-21T05:46:20.258Z,95
2022-11-21T05:49:45.514Z,95
2022-11-21T05:53:10.811Z,94
2022-11-21T05:56:36.040Z,94
2022-11-21T06:00:01.233Z,94
2022-11-21T06:03:26.523Z,93
2022-11-21T06:06:51.705Z,93
2022-11-21T06:10:16.932Z,93
2022-11-21T06:13:43.023Z,91
2022-11-21T06:17:08.237Z,90
2022-11-21T06:20:33.486Z,89
2022-11-21T06:23:58.665Z,90
2022-11-21T06:27:23.886Z,89
2022-11-21T06:30:49.134Z,89
2022-11-21T06:34:14.357Z,90
2022-11-21T06:37:39.622Z,90
2022-11-21T06:41:04.814Z,90
2022-11-21T06:44:30.293Z,90
2022-11-21T06:47:55.249Z,90
2022-11-21T06:51:20.450Z,90
2022-11-21T06:54:45.685Z,89
2022-11-21T06:58:10.882Z,90
2022-11-21T07:01:36.189Z,89
2022-11-21T07:05:01.380Z,89
2022-11-21T07:08:26.625Z,90
2022-11-21T07:11:51.905Z,89
2022-11-21T07:15:17.133Z,89
2022-11-21T07:18:42.425Z,89
2022-11-21T07:22:07.658Z,89
2022-11-21T07:25:36.564Z,88
2022-11-21T07:28:58.113Z,88
2022-11-21T07:32:23.297Z,89
2022-11-21T07:35:48.511Z,89
2022-11-21T07:39:13.707Z,89
2022-11-21T07:42:38.904Z,90
2022-11-21T07:46:04.142Z,89
2022-11-21T07:49:29.540Z,89
2022-11-21T07:52:54.529Z,90
2022-11-21T07:56:19.741Z,90
2022-11-21T07:59:44.911Z,90
2022-11-21T08:03:10.145Z,90
2022-11-21T08:06:35.331Z,90
2022-11-21T08:10:00.522Z,89
2022-11-21T08:13:25.744Z,89
2022-11-21T08:16:50.945Z,89
2022-11-21T08:20:16.180Z,89
2022-11-21T08:23:41.354Z,89
2022-11-21T08:27:07.554Z,89
2022-11-21T08:30:32.763Z,89
2022-11-21T08:33:57.953Z,88
2022-11-21T08:37:23.185Z,89
2022-11-21T08:40:48.364Z,89
2022-11-21T08:44:14.317Z,89
2022-11-21T08:47:38.762Z,89
2022-11-21T08:51:03.984Z,89
2022-11-21T08:54:29.537Z,90
2022-11-21T08:57:54.412Z,90
2022-11-21T09:01:19.629Z,89
2022-11-21T09:04:44.824Z,89
2022-11-21T09:08:10.021Z,88
2022-11-21T09:11:35.261Z,89
2022-11-21T09:15:00.441Z,89
2022-11-21T09:18:25.651Z,89
2022-11-21T09:21:50.855Z,88
2022-11-21T09:25:16.049Z,89
2022-11-21T09:28:41.285Z,89
2022-11-21T09:32:06.462Z,90
2022-11-21T09:35:31.654Z,89
2022-11-21T09:38:56.837Z,89
2022-11-21T09:42:22.048Z,88
2022-11-21T09:45:47.685Z,89
2022-11-21T09:49:12.466Z,89
2022-11-21T09:52:37.673Z,89
2022-11-21T09:56:02.893Z,89
2022-11-21T09:59:28.080Z,88
2022-11-21T10:02:53.434Z,88
2022-11-21T10:06:18.524Z,88
2022-11-21T10:09:43.723Z,88
2022-11-21T10:13:08.943Z,90
2022-11-21T10:16:37.950Z,89
2022-11-21T10:19:59.437Z,88
2022-11-21T10:23:24.624Z,87
2022-11-21T10:26:49.827Z,89
2022-11-21T10:30:15.023Z,86
2022-11-21T10:33:40.215Z,87
2022-11-21T10:37:10.501Z,86
2022-11-21T10:40:30.648Z,86
2022-11-21T10:43:55.838Z,86
2022-11-21T10:47:21.047Z,86
2022-11-21T10:50:46.259Z,87
2022-11-21T10:54:11.658Z,88
2022-11-21T10:57:36.842Z,88
2022-11-21T11:01:02.141Z,87
2022-11-21T11:04:28.412Z,87
2022-11-21T11:07:52.492Z,88
2022-11-21T11:11:17.761Z,88
2022-11-21T11:14:42.931Z,88
2022-11-21T11:18:09.739Z,88
2022-11-21T11:21:33.382Z,89
2022-11-21T11:25:00.650Z,89
2022-11-21T11:28:23.917Z,89
2022-11-21T11:31:49.074Z,88
2022-11-21T11:35:14.322Z,88
2022-11-21T11:38:40.066Z,87
2022-11-21T11:42:05.426Z,87
2022-11-21T11:45:30.796Z,87
2022-11-21T11:49:17.823Z,88
2022-11-21T11:52:21.247Z,87
2022-11-21T11:55:46.937Z,87
2022-11-21T11:59:11.703Z,87
2022-11-21T12:02:36.986Z,88
2022-11-21T12:06:06.077Z,88
2022-11-21T12:09:27.698Z,87
2022-11-21T12:12:52.679Z,88
2022-11-21T12:16:17.882Z,87
2022-11-21T12:19:43.135Z,87
2022-11-21T12:23:08.346Z,87
2022-11-21T12:26:33.588Z,87
2022-11-21T12:29:58.851Z,87
2022-11-21T12:33:24.091Z,87
2022-11-21T12:36:49.354Z,87
2022-11-21T12:40:14.532Z,87
2022-11-21T12:43:39.780Z,87
2022-11-21T12:47:05.000Z,86
2022-11-21T12:50:30.246Z,87
2022-11-21T12:53:55.464Z,88
2022-11-21T12:57:20.661Z,87
2022-11-21T13:00:45.895Z,88
2022-11-21T13:04:11.181Z,88
2022-11-21T13:07:36.477Z,86
2022-11-21T13:11:01.670Z,86
2022-11-21T13:14:26.872Z,87
2022-11-21T13:17:52.129Z,87
2022-11-21T13:21:17.356Z,88
2022-11-21T13:24:42.595Z,88
2022-11-21T13:28:08.547Z,88
2022-11-21T13:31:33.863Z,88
2022-11-21T13:34:59.135Z,87
2022-11-21T13:38:24.372Z,87
2022-11-21T13:41:49.609Z,87
2022-11-21T13:45:14.888Z,87
2022-11-21T13:48:40.088Z,87
2022-11-21T13:52:05.390Z,86
2022-11-21T13:55:30.697Z,86
2022-11-21T13:58:56.014Z,86
2022-11-21T14:02:21.299Z,87
2022-11-21T14:05:47.713Z,87
2022-11-21T14:09:11.953Z,87
2022-11-21T14:12:41.207Z,88
2022-11-21T14:16:02.472Z,88
2022-11-21T14:19:28.144Z,87
2022-11-21T14:22:53.084Z,87
2022-11-21T14:26:18.383Z,88
2022-11-21T14:29:43.694Z,88
2022-11-21T15:05:34.328Z,87
2022-11-21T15:12:11.129Z,87
2022-11-21T15:15:36.422Z,88
2022-11-21T15:19:01.705Z,88
2022-11-21T15:22:27.108Z,88
2022-11-21T15:25:54.522Z,88
2022-11-21T15:29:17.749Z,88
2022-11-21T15:32:43.042Z,88
2022-11-21T15:36:08.355Z,88
2022-11-21T15:39:33.724Z,88
2022-11-21T15:42:58.947Z,89
2022-11-21T15:46:24.240Z,89
2022-11-21T15:49:49.522Z,89
2022-11-21T15:53:14.823Z,89
2022-11-21T15:56:40.199Z,88
2022-11-21T16:00:05.407Z,89
2022-11-21T16:03:30.709Z,89
2022-11-21T16:06:56.078Z,89
2022-11-21T16:10:27.359Z,88
2022-11-21T16:13:47.102Z,88
2022-11-21T16:17:12.023Z,89
2022-11-21T16:20:37.311Z,89
2022-11-21T16:24:02.567Z,89
2022-11-21T16:27:27.964Z,89
2022-11-21T16:30:53.261Z,89
2022-11-21T16:34:18.570Z,88
2022-11-21T16:37:44.082Z,88
2022-11-21T16:41:09.400Z,88
2022-11-21T16:44:35.274Z,89
2022-11-21T16:48:00.775Z,90
2022-11-21T16:51:26.047Z,90
2022-11-21T16:54:51.340Z,90
2022-11-21T16:58:16.697Z,90
2022-11-21T17:01:42.064Z,90
2022-11-21T17:05:07.380Z,90
2022-11-21T17:08:32.673Z,90
2022-11-21T17:11:57.989Z,90
2022-11-21T17:15:23.275Z,90
2022-11-21T17:18:48.583Z,89
2022-11-21T17:22:13.887Z,89
2022-11-21T17:25:39.186Z,89
2022-11-21T17:29:04.470Z,89
2022-11-21T17:32:29.788Z,89
2022-11-21T17:35:55.025Z,89
2022-11-21T17:39:22.117Z,89
2022-11-21T17:42:45.574Z,90
2022-11-21T17:46:10.880Z,90
2022-11-21T17:49:36.158Z,90
2022-11-21T17:53:01.469Z,89
2022-11-21T17:56:26.862Z,89
2022-11-21T17:59:52.171Z,89
2022-11-21T18:03:17.337Z,89
2022-11-21T18:06:42.593Z,90
2022-11-21T18:10:27.826Z,90
2022-11-21T18:13:33.174Z,90
2022-11-21T18:16:58.420Z,90
2022-11-21T18:20:23.675Z,90
2022-11-21T18:23:48.931Z,90
2022-11-21T18:27:14.211Z,89
2022-11-21T18:30:39.495Z,89
2022-11-21T18:34:04.748Z,90
2022-11-21T18:37:29.991Z,90
2022-11-21T18:40:55.224Z,91
2022-11-21T18:44:22.382Z,91
2022-11-21T18:47:47.794Z,90
2022-11-21T18:51:11.073Z,90
2022-11-21T18:54:36.357Z,89
2022-11-21T18:58:01.574Z,90
2022-11-21T19:01:26.970Z,90
2022-11-21T19:04:52.176Z,90
2022-11-21T19:08:17.394Z,90
2022-11-21T19:11:42.651Z,90
2022-11-21T19:15:07.882Z,90
2022-11-21T19:18:36.416Z,90
2022-11-21T19:21:58.365Z,89
2022-11-21T19:25:23.544Z,90
2022-11-21T19:28:48.787Z,90
2022-11-21T19:32:14.013Z,91
2022-11-21T19:35:39.254Z,91
2022-11-21T19:39:04.535Z,91
2022-11-21T19:42:29.687Z,91
2022-11-21T19:45:57.979Z,91
2022-11-21T19:49:20.101Z,91
2022-11-21T19:52:45.344Z,92
2022-11-21T19:56:10.572Z,92
2022-11-21T19:59:35.768Z,91
2022-11-21T20:03:01.004Z,91
2022-11-21T20:06:26.280Z,91
2022-11-21T20:09:51.513Z,91
2022-11-21T20:13:16.780Z,90
2022-11-21T20:16:41.998Z,89
2022-11-21T20:20:07.212Z,89
2022-11-21T20:23:32.419Z,89
2022-11-21T20:26:57.669Z,89
2022-11-21T20:30:22.916Z,89
2022-11-21T20:33:48.124Z,89
2022-11-21T20:37:13.350Z,89
2022-11-21T20:40:38.632Z,89
2022-11-21T20:47:29.086Z,89
2022-11-21T20:54:19.421Z,90
2022-11-21T20:57:44.614Z,91
2022-11-21T21:01:09.904Z,90
2022-11-21T21:04:35.012Z,90
2022-11-21T21:08:00.195Z,90
2022-11-21T21:14:50.583Z,90
2022-11-21T21:18:15.789Z,90
2022-11-21T21:21:41.631Z,89
2022-11-21T21:25:06.712Z,89
2022-11-21T21:28:31.911Z,89
2022-11-21T21:31:57.126Z,89
2022-11-21T21:35:22.311Z,89
2022-11-21T21:38:47.558Z,89
2022-11-21T21:42:12.718Z,88
2022-11-21T21:45:37.910Z,89
2022-11-21T21:49:03.101Z,88
2022-11-21T21:52:28.293Z,88
2022-11-21T21:55:53.512Z,88
2022-11-21T21:59:18.676Z,88
2022-11-21T22:02:43.868Z,88
2022-11-21T22:06:09.066Z,88
2022-11-21T22:09:34.250Z,89
2022-11-21T22:12:59.475Z,89
2022-11-21T22:16:24.647Z,89
2022-11-21T22:19:49.842Z,89
2022-11-21T22:23:15.038Z,88
2022-11-21T22:26:40.240Z,88
2022-11-21T22:30:05.459Z,89
2022-11-21T22:33:30.647Z,89
2022-11-21T22:36:55.824Z,89
2022-11-21T22:40:21.008Z,89
2022-11-21T22:43:46.210Z,88
2022-11-21T22:47:11.419Z,88
2022-11-21T22:50:36.580Z,88
2022-11-21T22:54:01.803Z,89
2022-11-21T22:57:26.968Z,88
2022-11-21T23:00:52.166Z,89
2022-11-21T23:04:17.959Z,89
2022-11-21T23:07:42.596Z,89
2022-11-21T23:11:07.734Z,89
2022-11-21T23:14:32.919Z,89
2022-11-21T23:17:58.115Z,89
2022-11-21T23:21:23.325Z,89
2022-11-21T23:24:48.478Z,88
2022-11-21T23:28:13.663Z,88
2022-11-21T23:31:38.854Z,88
2022-11-21T23:35:04.040Z,88
2022-11-21T23:38:29.262Z,88
2022-11-21T23:41:54.452Z,88
2022-11-21T23:45:19.640Z,89
2022-11-21T23:48:44.839Z,88
2022-11-21T23:52:10.033Z,88
2022-11-21T23:55:35.246Z,88
2022-11-21T23:59:00.416Z,88
